Time;durP1;ratioP1;P1;durP2;ratioP2;P2;SDS_P1;SDS_P2;PMS_P1;PMS_P2;Temp;Humidity;BMP_temperature;BMP_pressure;BME280_temperature;BME280_humidity;BME280_pressure;Samples;Min_cycle;Max_cycle;Signal;HPM_P1;HPM_P2
2023/04/10 00:00:23;;;;;;;1.00;0.90;;;19.50;53.30;;;;;;5090821;28;20194;-53
2023/04/10 00:02:53;;;;;;;0.77;0.77;;;19.50;53.30;;;;;;5090947;28;20221;-53
2023/04/10 00:05:24;;;;;;;0.77;0.77;;;19.50;53.30;;;;;;5090837;28;20194;-55
2023/04/10 00:07:55;;;;;;;0.82;0.80;;;19.50;53.20;;;;;;5091423;28;20223;-53
2023/04/10 00:10:28;;;;;;;1.25;1.15;;;19.60;53.30;;;;;;5091717;28;20197;-49
2023/04/10 00:12:59;;;;;;;1.08;0.90;;;19.60;53.30;;;;;;5091232;28;20313;-54
2023/04/10 00:15:32;;;;;;;1.10;1.00;;;19.60;53.30;;;;;;5086655;28;20213;-54
2023/04/10 00:18:02;;;;;;;1.38;0.90;;;19.60;53.20;;;;;;5071188;28;20199;-54
2023/04/10 00:20:33;;;;;;;2.67;1.00;;;19.60;53.30;;;;;;5083159;28;20198;-51
2023/04/10 00:23:06;;;;;;;0.82;0.82;;;19.60;53.20;;;;;;5091058;28;20711;-51
2023/04/10 00:25:36;;;;;;;1.00;0.90;;;19.70;53.30;;;;;;5090929;28;20281;-53
2023/04/10 00:28:07;;;;;;;1.73;0.90;;;19.70;53.30;;;;;;5090576;28;20550;-49
2023/04/10 00:30:40;;;;;;;1.38;1.00;;;19.70;53.30;;;;;;5089430;28;20198;-51
2023/04/10 00:33:10;;;;;;;1.10;0.90;;;19.70;53.40;;;;;;5071198;28;20230;-50
2023/04/10 00:35:41;;;;;;;1.30;0.90;;;19.70;53.40;;;;;;5070583;28;20195;-51
2023/04/10 00:38:12;;;;;;;0.88;0.80;;;19.70;53.40;;;;;;5070984;28;20618;-52
2023/04/10 00:40:42;;;;;;;1.48;0.77;;;19.80;53.40;;;;;;5070575;28;20195;-51
2023/04/10 00:43:13;;;;;;;1.40;1.13;;;19.80;53.40;;;;;;5070734;28;20226;-52
2023/04/10 00:45:45;;;;;;;0.90;0.80;;;19.80;53.40;;;;;;5071084;28;20207;-51
2023/04/10 00:48:18;;;;;;;1.13;0.88;;;19.80;53.50;;;;;;5072831;28;20191;-52
2023/04/10 00:50:49;;;;;;;1.67;1.20;;;19.80;53.40;;;;;;5074233;28;20197;-52
2023/04/10 00:53:20;;;;;;;0.90;0.80;;;19.80;53.40;;;;;;5074245;28;20288;-53
2023/04/10 00:55:51;;;;;;;0.80;0.80;;;19.90;53.50;;;;;;5074425;28;20195;-50
2023/04/10 00:58:22;;;;;;;1.10;0.85;;;19.90;53.50;;;;;;5074354;28;20195;-51
2023/04/10 01:00:54;;;;;;;1.42;1.00;;;19.90;53.40;;;;;;5073946;28;20202;-52
2023/04/10 01:03:26;;;;;;;1.63;0.90;;;19.90;53.50;;;;;;5074072;28;20222;-51
2023/04/10 01:06:05;;;;;;;2.42;0.95;;;19.90;53.40;;;;;;5074017;28;20190;-50
2023/04/10 01:08:48;;;;;;;1.85;1.00;;;19.90;53.50;;;;;;5074196;28;20615;-52
2023/04/10 01:11:29;;;;;;;3.40;1.08;;;19.90;53.50;;;;;;5074013;28;20209;-53
2023/04/10 01:14:07;;;;;;;2.15;1.00;;;20.00;53.60;;;;;;5073813;28;20256;-49
2023/04/10 01:16:45;;;;;;;1.95;1.10;;;20.00;53.60;;;;;;5073586;28;20206;-51
2023/04/10 01:19:25;;;;;;;1.73;0.93;;;20.00;53.70;;;;;;5073922;28;20665;-51
2023/04/10 01:21:57;;;;;;;1.58;1.10;;;20.00;53.60;;;;;;5073763;28;20667;-53
2023/04/10 01:24:46;;;;;;;1.60;1.08;;;20.00;53.60;;;;;;5074122;28;20206;-51
2023/04/10 01:27:32;;;;;;;1.25;1.02;;;20.00;53.70;;;;;;5074167;28;20195;-52
2023/04/10 01:30:06;;;;;;;1.73;1.10;;;20.10;53.70;;;;;;5073779;28;20199;-55
2023/04/10 01:32:38;;;;;;;1.10;0.95;;;20.10;53.70;;;;;;5073731;28;20229;-53
2023/04/10 01:35:10;;;;;;;1.00;0.90;;;20.10;53.60;;;;;;5073709;28;20194;-53
2023/04/10 01:37:44;;;;;;;1.90;1.00;;;20.10;53.70;;;;;;5073609;28;20199;-51
2023/04/10 01:40:19;;;;;;;1.10;0.90;;;20.10;53.70;;;;;;5072914;28;20280;-55
2023/04/10 01:42:52;;;;;;;2.05;1.30;;;20.10;53.60;;;;;;5073311;28;20686;-54
2023/04/10 01:45:29;;;;;;;2.22;0.95;;;20.10;53.60;;;;;;5073667;28;20206;-55
2023/04/10 01:47:59;;;;;;;1.20;1.05;;;20.10;53.60;;;;;;5074071;28;20201;-52
2023/04/10 01:50:32;;;;;;;1.58;0.85;;;20.20;53.60;;;;;;5086458;28;20205;-51
2023/04/10 01:53:04;;;;;;;1.90;1.05;;;20.20;53.70;;;;;;5093297;28;20673;-53
2023/04/10 01:55:37;;;;;;;2.03;1.10;;;20.20;53.80;;;;;;5093571;28;20194;-53
2023/04/10 01:58:08;;;;;;;1.30;1.10;;;20.20;53.80;;;;;;5093417;28;20201;-57
2023/04/10 02:00:43;;;;;;;1.38;0.80;;;20.20;53.80;;;;;;5093254;28;20194;-54
2023/04/10 02:03:14;;;;;;;1.20;1.10;;;20.20;53.90;;;;;;5093290;28;20689;-56
2023/04/10 02:05:58;;;;;;;1.63;1.10;;;20.20;53.80;;;;;;5092903;28;20591;-56
2023/04/10 02:08:36;;;;;;;1.90;1.17;;;20.30;53.90;;;;;;5093421;28;20363;-54
2023/04/10 02:11:17;;;;;;;1.20;1.00;;;20.30;53.90;;;;;;5092991;28;20198;-55
2023/04/10 02:13:50;;;;;;;1.70;1.20;;;20.40;53.90;;;;;;5092757;28;20222;-55
2023/04/10 02:16:25;;;;;;;3.95;1.27;;;20.40;53.90;;;;;;5082566;28;20187;-56
2023/04/10 02:18:56;;;;;;;1.73;1.02;;;20.40;53.90;;;;;;5072977;28;20646;-53
2023/04/10 02:21:28;;;;;;;1.88;1.20;;;20.40;53.90;;;;;;5072791;28;20206;-56
2023/04/10 02:23:59;;;;;;;1.80;0.90;;;20.40;53.80;;;;;;5083095;28;20213;-54
2023/04/10 02:26:30;;;;;;;2.20;1.08;;;20.40;53.80;;;;;;5092193;28;20198;-54
2023/04/10 02:29:01;;;;;;;2.88;1.30;;;20.50;53.90;;;;;;5092930;28;20198;-55
2023/04/10 02:31:33;;;;;;;2.55;1.05;;;20.50;53.90;;;;;;5093039;28;20804;-55
2023/04/10 02:34:04;;;;;;;2.08;1.20;;;20.50;54.50;;;;;;5092846;28;20685;-55
2023/04/10 02:36:34;;;;;;;1.38;1.00;;;20.50;53.90;;;;;;5092512;28;20204;-55
2023/04/10 02:39:05;;;;;;;1.60;0.88;;;20.50;54.60;;;;;;5077173;28;20190;-52
2023/04/10 02:41:36;;;;;;;1.77;1.00;;;20.50;53.90;;;;;;5072005;28;20202;-49
2023/04/10 02:44:07;;;;;;;1.40;1.05;;;20.60;53.90;;;;;;5071835;28;20210;-54
2023/04/10 02:46:42;;;;;;;2.13;1.05;;;20.60;54.00;;;;;;5072031;28;20230;-49
2023/04/10 02:49:12;;;;;;;1.10;1.00;;;20.60;53.90;;;;;;5072254;28;20244;-49
2023/04/10 02:51:43;;;;;;;1.05;0.85;;;20.70;54.00;;;;;;5071830;28;20202;-51
2023/04/10 02:54:14;;;;;;;1.13;1.00;;;20.70;54.00;;;;;;5071880;28;20230;-48
2023/04/10 02:56:44;;;;;;;1.27;1.02;;;20.70;54.00;;;;;;5072075;28;20198;-50
2023/04/10 02:59:15;;;;;;;1.67;1.02;;;20.70;54.00;;;;;;5072282;28;20354;-51
2023/04/10 03:01:48;;;;;;;0.82;0.80;;;20.70;54.00;;;;;;5072191;28;20202;-48
2023/04/10 03:04:19;;;;;;;1.23;0.88;;;20.80;54.10;;;;;;5071513;28;20202;-53
2023/04/10 03:06:50;;;;;;;1.42;1.10;;;20.80;54.00;;;;;;5071124;28;20234;-53
2023/04/10 03:09:20;;;;;;;1.20;0.93;;;20.80;54.00;;;;;;5071495;28;20655;-53
2023/04/10 03:11:51;;;;;;;1.60;1.10;;;20.80;53.90;;;;;;5070811;28;20203;-50
2023/04/10 03:14:22;;;;;;;1.73;0.85;;;20.80;54.00;;;;;;5071895;28;20276;-52
2023/04/10 03:16:54;;;;;;;1.75;1.23;;;20.80;54.00;;;;;;5071950;28;20240;-49
2023/04/10 03:19:25;;;;;;;2.30;1.08;;;20.80;54.00;;;;;;5071665;28;20199;-54
2023/04/10 03:21:56;;;;;;;1.15;0.88;;;20.80;53.90;;;;;;5071595;28;20222;-50
2023/04/10 03:24:26;;;;;;;2.47;1.10;;;20.90;54.00;;;;;;5071512;28;20208;-53
2023/04/10 03:26:57;;;;;;;1.42;0.85;;;20.90;54.00;;;;;;5071468;28;20773;-51
2023/04/10 03:29:28;;;;;;;1.08;0.90;;;20.90;53.90;;;;;;5071634;28;20234;-54
2023/04/10 03:32:00;;;;;;;1.17;0.80;;;20.90;53.90;;;;;;5071441;28;20215;-54
2023/04/10 03:34:31;;;;;;;1.42;1.00;;;20.90;53.90;;;;;;5071382;28;20233;-51
2023/04/10 03:37:02;;;;;;;1.20;1.10;;;20.90;53.80;;;;;;5071649;28;20203;-54
2023/04/10 03:39:32;;;;;;;1.05;0.70;;;20.90;53.80;;;;;;5071552;28;20205;-51
2023/04/10 03:42:03;;;;;;;2.13;0.90;;;20.90;53.80;;;;;;5071271;28;20217;-54
2023/04/10 03:44:34;;;;;;;1.23;0.95;;;20.90;53.70;;;;;;5071197;28;20202;-55
2023/04/10 03:47:07;;;;;;;1.05;0.90;;;20.90;53.70;;;;;;5071851;28;20241;-49
2023/04/10 03:49:37;;;;;;;1.23;0.90;;;20.90;53.60;;;;;;5070755;28;20199;-53
2023/04/10 03:52:08;;;;;;;0.90;0.80;;;20.90;53.70;;;;;;5071243;28;20215;-51
2023/04/10 03:54:39;;;;;;;1.75;1.10;;;20.90;53.60;;;;;;5071560;28;20198;-50
2023/04/10 03:57:09;;;;;;;1.23;1.00;;;20.90;53.60;;;;;;5082021;28;20703;-53
2023/04/10 03:59:40;;;;;;;1.20;1.08;;;20.90;53.60;;;;;;5091434;28;20190;-55
2023/04/10 04:02:12;;;;;;;1.65;0.80;;;20.90;53.60;;;;;;5091323;28;20681;-52
2023/04/10 04:04:43;;;;;;;0.80;0.80;;;20.90;53.60;;;;;;5091197;28;20194;-50
2023/04/10 04:07:14;;;;;;;1.27;0.90;;;20.90;53.60;;;;;;5090961;28;20187;-54
2023/04/10 04:09:45;;;;;;;1.30;1.00;;;20.90;53.60;;;;;;5091034;28;20233;-53
2023/04/10 04:12:15;;;;;;;0.90;0.80;;;20.90;53.60;;;;;;5090739;28;20214;-51
2023/04/10 04:14:46;;;;;;;1.58;1.10;;;20.90;53.50;;;;;;5079595;28;20221;-50
2023/04/10 04:17:18;;;;;;;1.42;0.88;;;21.00;53.50;;;;;;5090538;28;20660;-51
2023/04/10 04:19:49;;;;;;;0.98;0.90;;;20.90;53.50;;;;;;5091132;28;20201;-52
2023/04/10 04:22:20;;;;;;;1.10;0.85;;;20.90;53.50;;;;;;5093344;28;20218;-52
2023/04/10 04:24:51;;;;;;;1.15;1.02;;;20.90;53.50;;;;;;5095520;28;20198;-54
2023/04/10 04:27:22;;;;;;;1.73;1.00;;;20.90;53.50;;;;;;5095421;28;20606;-51
2023/04/10 04:29:52;;;;;;;1.25;0.95;;;20.90;53.40;;;;;;5095384;28;20233;-53
2023/04/10 04:32:25;;;;;;;1.67;0.98;;;20.90;53.30;;;;;;5095014;28;20772;-52
2023/04/10 04:34:55;;;;;;;1.08;0.98;;;20.90;53.30;;;;;;5094691;28;20217;-53
2023/04/10 04:37:26;;;;;;;1.65;1.00;;;20.90;53.30;;;;;;5094981;28;20256;-52
2023/04/10 04:39:57;;;;;;;1.50;1.13;;;20.90;53.40;;;;;;5094718;28;20205;-56
2023/04/10 04:42:27;;;;;;;2.40;1.00;;;20.90;53.40;;;;;;5094417;28;20708;-53
2023/04/10 04:44:58;;;;;;;1.45;0.90;;;20.90;53.40;;;;;;5092918;28;20682;-55
2023/04/10 04:47:30;;;;;;;1.33;1.10;;;20.80;53.30;;;;;;5092553;28;20193;-52
2023/04/10 04:50:01;;;;;;;1.80;1.00;;;20.80;53.30;;;;;;5094647;28;20201;-52
2023/04/10 04:52:34;;;;;;;1.13;0.90;;;20.90;53.30;;;;;;5094956;28;20617;-50
2023/04/10 04:55:04;;;;;;;1.50;1.00;;;20.90;53.40;;;;;;5094413;28;20198;-53
2023/04/10 04:57:35;;;;;;;1.63;1.00;;;20.90;53.30;;;;;;5094486;28;20194;-54
2023/04/10 05:00:06;;;;;;;1.08;0.90;;;20.80;53.30;;;;;;5095193;28;20194;-55
2023/04/10 05:02:39;;;;;;;0.98;0.88;;;20.90;53.30;;;;;;5094679;28;20215;-52
2023/04/10 05:05:10;;;;;;;1.15;0.90;;;20.90;53.30;;;;;;5094392;28;20194;-51
2023/04/10 05:07:41;;;;;;;1.05;0.95;;;20.80;53.20;;;;;;5094440;28;20194;-52
2023/04/10 05:10:12;;;;;;;1.13;1.00;;;20.80;53.20;;;;;;5093980;28;20197;-52
2023/04/10 05:12:42;;;;;;;1.05;0.90;;;20.80;53.20;;;;;;5093733;28;20218;-53
2023/04/10 05:15:13;;;;;;;1.33;0.93;;;20.80;53.20;;;;;;5093178;28;20197;-54
2023/04/10 05:17:49;;;;;;;2.53;1.10;;;20.80;53.20;;;;;;5093224;28;20194;-52
2023/04/10 05:20:20;;;;;;;1.65;0.95;;;20.70;53.10;;;;;;5093627;28;20206;-54
2023/04/10 05:22:51;;;;;;;0.80;0.80;;;20.80;53.20;;;;;;5093650;28;20226;-53
2023/04/10 05:25:22;;;;;;;1.60;0.82;;;20.80;53.20;;;;;;5093275;28;20198;-52
2023/04/10 05:27:53;;;;;;;0.95;0.85;;;20.80;53.20;;;;;;5093384;28;20198;-50
2023/04/10 05:30:23;;;;;;;1.25;0.90;;;20.80;53.20;;;;;;5093850;28;20255;-52
2023/04/10 05:32:56;;;;;;;1.25;0.90;;;20.70;53.30;;;;;;5093294;28;20271;-54
2023/04/10 05:35:26;;;;;;;0.88;0.80;;;20.80;53.30;;;;;;5093738;28;20194;-50
2023/04/10 05:37:57;;;;;;;1.23;0.90;;;20.70;53.30;;;;;;5093598;28;20205;-53
2023/04/10 05:40:28;;;;;;;3.42;1.00;;;20.80;53.40;;;;;;5093422;28;20197;-52
2023/04/10 05:42:59;;;;;;;1.02;0.90;;;20.70;53.30;;;;;;5093167;28;20618;-53
2023/04/10 05:45:29;;;;;;;1.42;0.98;;;20.70;53.30;;;;;;5093213;28;20213;-54
2023/04/10 05:48:02;;;;;;;0.98;0.77;;;20.70;53.40;;;;;;5093689;28;20214;-52
2023/04/10 05:50:32;;;;;;;1.60;1.00;;;20.70;53.40;;;;;;5093411;28;20255;-51
2023/04/10 05:53:03;;;;;;;0.90;0.75;;;20.70;53.40;;;;;;5093580;28;20214;-52
2023/04/10 05:55:37;;;;;;;0.77;0.77;;;20.70;53.40;;;;;;5093195;28;20194;-52
2023/04/10 05:58:07;;;;;;;1.38;0.90;;;20.70;53.40;;;;;;5093909;28;20239;-52
2023/04/10 06:00:38;;;;;;;1.90;0.80;;;20.70;53.30;;;;;;5093337;28;20198;-49
2023/04/10 06:03:11;;;;;;;0.75;0.70;;;20.60;53.30;;;;;;5093255;28;20221;-53
2023/04/10 06:05:42;;;;;;;1.05;0.90;;;20.70;53.30;;;;;;5092828;28;20194;-49
2023/04/10 06:08:12;;;;;;;1.05;0.68;;;20.60;53.30;;;;;;5090485;28;20222;-52
2023/04/10 06:10:43;;;;;;;1.15;0.80;;;20.60;53.30;;;;;;5079620;28;20235;-51
2023/04/10 06:13:14;;;;;;;1.25;0.90;;;20.60;53.20;;;;;;5076618;28;20222;-52
2023/04/10 06:15:45;;;;;;;0.80;0.80;;;20.60;53.20;;;;;;5074048;28;20221;-54
2023/04/10 06:18:17;;;;;;;0.82;0.70;;;20.60;53.20;;;;;;5072357;28;20205;-52
2023/04/10 06:20:48;;;;;;;1.30;0.90;;;20.60;53.30;;;;;;5079182;28;20202;-51
2023/04/10 06:23:18;;;;;;;1.30;1.10;;;20.60;53.30;;;;;;5092372;28;20214;-52
2023/04/10 06:25:49;;;;;;;1.05;0.90;;;20.60;53.30;;;;;;5092891;28;20186;-51
2023/04/10 06:28:20;;;;;;;2.15;1.10;;;20.60;53.30;;;;;;5087601;28;20556;-53
2023/04/10 06:30:50;;;;;;;1.02;0.77;;;20.60;53.30;;;;;;5087063;28;20200;-49
2023/04/10 06:33:23;;;;;;;1.10;0.80;;;20.60;53.30;;;;;;5112258;28;20213;-54
2023/04/10 06:35:54;;;;;;;1.92;1.00;;;20.50;53.20;;;;;;5112714;28;20276;-53
2023/04/10 06:38:24;;;;;;;1.02;0.90;;;20.60;53.30;;;;;;5112052;28;20200;-53
2023/04/10 06:40:55;;;;;;;2.08;0.98;;;20.50;53.20;;;;;;5090374;28;20186;-49
2023/04/10 06:43:26;;;;;;;1.65;1.05;;;20.50;53.20;;;;;;5091373;28;20229;-52
2023/04/10 06:45:57;;;;;;;1.73;0.93;;;20.50;53.20;;;;;;5090067;28;20202;-52
2023/04/10 06:48:30;;;;;;;1.25;1.15;;;20.50;53.20;;;;;;5092842;28;20727;-50
2023/04/10 06:51:01;;;;;;;1.40;1.00;;;20.50;53.20;;;;;;5090545;28;20198;-50
2023/04/10 06:53:32;;;;;;;1.17;1.13;;;20.50;53.20;;;;;;5091686;28;20746;-52
2023/04/10 06:56:02;;;;;;;1.40;1.10;;;20.50;53.20;;;;;;5091514;28;20194;-53
2023/04/10 06:58:33;;;;;;;1.65;1.08;;;20.50;53.20;;;;;;5091988;28;20198;-55
2023/04/10 07:01:04;;;;;;;1.20;1.00;;;20.50;53.20;;;;;;5091330;28;20634;-55
2023/04/10 07:03:37;;;;;;;1.35;0.90;;;20.50;53.20;;;;;;5092345;28;20228;-55
2023/04/10 07:06:08;;;;;;;1.50;1.20;;;20.50;53.20;;;;;;5092521;28;20254;-54
2023/04/10 07:08:38;;;;;;;1.27;1.00;;;20.50;53.20;;;;;;5112062;28;20592;-53
2023/04/10 07:11:09;;;;;;;1.23;1.02;;;20.50;53.20;;;;;;5111328;28;20186;-53
2023/04/10 07:13:40;;;;;;;1.20;1.00;;;20.50;53.20;;;;;;5111183;28;20232;-52
2023/04/10 07:16:11;;;;;;;1.90;1.10;;;20.50;53.20;;;;;;5098643;28;20652;-55
2023/04/10 07:18:44;;;;;;;1.95;1.10;;;20.40;53.30;;;;;;5091123;28;20190;-55
2023/04/10 07:21:14;;;;;;;1.60;1.10;;;20.40;53.20;;;;;;5099339;28;20189;-55
2023/04/10 07:23:45;;;;;;;1.00;0.90;;;20.40;53.20;;;;;;5111521;28;20708;-50
2023/04/10 07:26:16;;;;;;;1.25;1.00;;;20.40;53.20;;;;;;5111538;28;20186;-51
2023/04/10 07:28:46;;;;;;;2.17;1.00;;;20.40;53.20;;;;;;5111055;28;20194;-51
2023/04/10 07:31:18;;;;;;;1.20;1.10;;;20.40;53.30;;;;;;5111351;27;20186;-49
2023/04/10 07:33:50;;;;;;;1.17;0.93;;;20.40;53.20;;;;;;5111046;28;20229;-51
2023/04/10 07:36:21;;;;;;;1.20;1.10;;;20.40;53.30;;;;;;5108888;28;20193;-53
2023/04/10 07:38:51;;;;;;;1.20;0.95;;;20.40;53.20;;;;;;5091029;28;20194;-53
2023/04/10 07:41:23;;;;;;;1.27;1.00;;;20.40;53.30;;;;;;5091168;28;20210;-50
2023/04/10 07:43:53;;;;;;;1.52;1.05;;;20.40;53.30;;;;;;5091048;28;20257;-51
2023/04/10 07:46:25;;;;;;;1.48;1.30;;;20.40;53.30;;;;;;5091074;28;20205;-49
2023/04/10 07:48:58;;;;;;;0.98;0.90;;;20.30;53.20;;;;;;5091980;28;20194;-54
2023/04/10 07:51:28;;;;;;;1.92;0.93;;;20.30;53.20;;;;;;5090896;28;20198;-52
2023/04/10 07:53:59;;;;;;;0.98;0.98;;;20.30;53.20;;;;;;5091181;28;20214;-53
2023/04/10 07:56:31;;;;;;;1.10;0.95;;;20.30;53.20;;;;;;5082236;28;20591;-55
2023/04/10 07:59:02;;;;;;;0.93;0.90;;;20.30;53.20;;;;;;5070946;28;20613;-50
2023/04/10 08:01:33;;;;;;;1.10;1.00;;;20.30;53.30;;;;;;5071055;28;20273;-52
2023/04/10 08:04:05;;;;;;;1.63;1.15;;;20.30;53.30;;;;;;5079543;28;20190;-53
2023/04/10 08:06:36;;;;;;;1.42;1.20;;;20.30;53.30;;;;;;5090850;28;20198;-53
2023/04/10 08:09:07;;;;;;;1.35;1.13;;;20.30;53.30;;;;;;5090774;28;20213;-55
2023/04/10 08:11:38;;;;;;;1.10;1.00;;;20.30;53.30;;;;;;5091002;28;20205;-51
2023/04/10 08:14:09;;;;;;;1.60;1.00;;;20.30;53.30;;;;;;5090769;28;20741;-49
2023/04/10 08:16:39;;;;;;;1.20;1.10;;;20.20;53.30;;;;;;5088222;28;20252;-51
2023/04/10 08:19:12;;;;;;;1.05;0.95;;;20.20;53.20;;;;;;5070531;28;20533;-52
2023/04/10 08:21:43;;;;;;;1.45;1.10;;;20.20;53.30;;;;;;5070342;28;20662;-55
2023/04/10 08:24:13;;;;;;;1.60;1.25;;;20.20;53.30;;;;;;5070247;28;20703;-53
2023/04/10 08:26:44;;;;;;;1.45;1.08;;;20.20;53.30;;;;;;5070678;28;20202;-51
2023/04/10 08:29:14;;;;;;;1.60;1.40;;;20.20;53.30;;;;;;5070830;28;20244;-49
2023/04/10 08:31:45;;;;;;;1.30;1.10;;;20.20;53.30;;;;;;5070890;28;20697;-48
2023/04/10 08:34:17;;;;;;;1.30;1.15;;;20.20;53.30;;;;;;5070854;28;20215;-53
2023/04/10 08:36:48;;;;;;;1.30;1.10;;;20.20;53.30;;;;;;5070899;28;20194;-55
2023/04/10 08:39:19;;;;;;;1.38;1.20;;;20.10;53.30;;;;;;5070559;28;20198;-53
2023/04/10 08:41:50;;;;;;;1.45;1.30;;;20.10;53.30;;;;;;5069596;28;20283;-53
2023/04/10 08:44:20;;;;;;;1.67;1.17;;;20.10;53.30;;;;;;5071266;28;20210;-51
2023/04/10 08:46:52;;;;;;;1.67;1.10;;;20.10;53.30;;;;;;5074077;28;20194;-51
2023/04/10 08:49:32;;;;;;;1.40;1.23;;;20.10;53.30;;;;;;5090048;28;20243;-52
2023/04/10 08:52:07;;;;;;;2.17;1.35;;;20.10;53.30;;;;;;5090676;28;20210;-51
2023/04/10 08:54:42;;;;;;;2.47;1.20;;;20.10;53.30;;;;;;5089968;28;20298;-53
2023/04/10 08:57:19;;;;;;;2.22;1.35;;;20.10;53.30;;;;;;5089778;28;20239;-50
2023/04/10 08:59:50;;;;;;;1.63;1.40;;;20.10;53.30;;;;;;5089441;28;20201;-49
2023/04/10 09:02:21;;;;;;;1.80;1.13;;;20.10;53.30;;;;;;5084422;28;20213;-55
2023/04/10 09:04:56;;;;;;;1.20;1.10;;;20.10;53.30;;;;;;5071871;28;20592;-52
2023/04/10 09:07:27;;;;;;;2.17;1.20;;;20.10;53.30;;;;;;5077663;28;20194;-51
2023/04/10 09:09:58;;;;;;;1.33;1.17;;;20.10;53.30;;;;;;5092390;28;20202;-49
2023/04/10 09:12:29;;;;;;;1.02;0.93;;;20.10;53.40;;;;;;5092957;28;20206;-54
2023/04/10 09:15:00;;;;;;;1.52;1.25;;;20.10;53.40;;;;;;5091241;28;20221;-53
2023/04/10 09:17:30;;;;;;;1.42;1.33;;;20.10;54.00;;;;;;5081350;28;20654;-53
2023/04/10 09:20:03;;;;;;;1.35;1.23;;;20.00;53.40;;;;;;5093410;28;20198;-52
2023/04/10 09:22:35;;;;;;;1.52;1.30;;;20.00;53.40;;;;;;5093425;28;20776;-53
2023/04/10 09:25:06;;;;;;;1.45;1.20;;;20.00;53.40;;;;;;5092569;28;20201;-53
2023/04/10 09:27:38;;;;;;;1.52;1.10;;;20.00;53.40;;;;;;5092609;28;20205;-56
2023/04/10 09:30:10;;;;;;;1.40;1.20;;;20.00;53.40;;;;;;5092428;28;20190;-52
2023/04/10 09:32:42;;;;;;;1.15;1.05;;;20.00;53.40;;;;;;5092445;28;20252;-55
2023/04/10 09:35:15;;;;;;;1.55;1.25;;;20.00;53.40;;;;;;5093064;28;20230;-51
2023/04/10 09:37:47;;;;;;;2.25;1.40;;;20.00;53.40;;;;;;5098159;28;20185;-53
2023/04/10 09:40:25;;;;;;;1.30;1.13;;;20.00;53.40;;;;;;5113154;28;20225;-57
2023/04/10 09:42:56;;;;;;;1.45;1.15;;;20.00;53.40;;;;;;5112998;28;20209;-53
2023/04/10 09:45:27;;;;;;;1.40;1.25;;;20.00;53.30;;;;;;5101516;28;20298;-55
2023/04/10 09:48:09;;;;;;;1.95;1.38;;;20.00;53.30;;;;;;5082952;28;20205;-53
2023/04/10 09:50:42;;;;;;;1.80;1.55;;;19.90;53.30;;;;;;5092106;28;20198;-53
2023/04/10 09:53:13;;;;;;;1.70;1.40;;;19.90;53.30;;;;;;5091770;28;20210;-52
2023/04/10 09:55:45;;;;;;;1.63;1.30;;;19.90;53.30;;;;;;5091879;28;20230;-48
2023/04/10 09:58:16;;;;;;;1.50;1.30;;;19.90;53.30;;;;;;5092213;28;20764;-50
2023/04/10 10:00:47;;;;;;;1.80;1.65;;;19.90;53.30;;;;;;5093456;28;20201;-52
2023/04/10 10:03:19;;;;;;;2.40;1.40;;;19.90;53.30;;;;;;5103837;28;20567;-52
2023/04/10 10:05:53;;;;;;;2.70;1.40;;;19.90;53.40;;;;;;5112753;28;20201;-52
2023/04/10 10:08:25;;;;;;;1.85;1.48;;;19.90;53.40;;;;;;5112617;28;20194;-50
2023/04/10 10:10:58;;;;;;;1.65;1.30;;;19.90;53.30;;;;;;5103389;28;20186;-51
2023/04/10 10:13:42;;;;;;;2.00;1.50;;;19.90;54.00;;;;;;5105063;28;20213;-47
2023/04/10 10:16:20;;;;;;;1.60;1.33;;;19.90;53.40;;;;;;5090857;28;20254;-52
2023/04/10 10:19:02;;;;;;;1.45;1.25;;;19.90;53.30;;;;;;5086891;28;20194;-50
2023/04/10 10:21:36;;;;;;;1.88;1.50;;;19.90;53.30;;;;;;5091111;28;20196;-51
2023/04/10 10:24:10;;;;;;;1.30;1.17;;;19.80;53.30;;;;;;5091815;28;20190;-53
2023/04/10 10:26:42;;;;;;;1.60;1.42;;;19.80;53.30;;;;;;5092456;28;20653;-53
2023/04/10 10:29:12;;;;;;;1.30;1.20;;;19.80;53.30;;;;;;5092538;28;20198;-55
2023/04/10 10:31:43;;;;;;;1.50;1.40;;;19.80;53.30;;;;;;5091238;28;20194;-55
2023/04/10 10:34:16;;;;;;;1.45;1.35;;;19.80;53.30;;;;;;5092236;28;20198;-52
2023/04/10 10:36:49;;;;;;;1.75;1.50;;;19.80;53.30;;;;;;5088306;28;20268;-50
2023/04/10 10:39:34;;;;;;;1.65;1.50;;;19.80;53.40;;;;;;5090144;28;20555;-50
2023/04/10 10:42:10;;;;;;;1.40;1.30;;;19.80;53.40;;;;;;5072329;28;20215;-54
2023/04/10 10:44:47;;;;;;;1.50;1.40;;;19.80;53.30;;;;;;5081652;28;20190;-51
2023/04/10 10:47:21;;;;;;;1.40;1.25;;;19.80;53.30;;;;;;5081850;28;20190;-50
2023/04/10 10:49:59;;;;;;;1.40;1.30;;;19.70;53.30;;;;;;5080102;28;20191;-48
2023/04/10 10:52:48;;;;;;;1.58;1.48;;;19.70;53.30;;;;;;5079999;28;20214;-48
2023/04/10 10:55:35;;;;;;;1.88;1.67;;;19.70;53.30;;;;;;5080335;28;20301;-52
2023/04/10 10:58:07;;;;;;;1.88;1.40;;;19.70;53.30;;;;;;5081619;28;20241;-51
2023/04/10 11:01:08;;;;;;;1.50;1.40;;;19.70;53.30;;;;;;5080995;28;20636;-53
2023/04/10 11:03:39;;;;;;;1.85;1.48;;;19.70;53.30;;;;;;5080853;28;20257;-53
2023/04/10 11:06:11;;;;;;;1.67;1.45;;;19.70;53.30;;;;;;5080186;28;20190;-56
2023/04/10 11:08:46;;;;;;;1.52;1.40;;;19.70;53.30;;;;;;5081028;28;20274;-52
2023/04/10 11:11:19;;;;;;;1.90;1.63;;;19.70;53.40;;;;;;5080225;28;20277;-50
2023/04/10 11:14:18;;;;;;;1.40;1.30;;;19.60;53.30;;;;;;5079638;28;20217;-55
2023/04/10 11:16:51;;;;;;;1.52;1.40;;;19.60;53.30;;;;;;5086488;28;20772;-56
2023/04/10 11:19:24;;;;;;;2.00;1.50;;;19.60;53.30;;;;;;5091727;28;20256;-53
2023/04/10 11:22:08;;;;;;;1.85;1.30;;;19.60;53.30;;;;;;5091448;28;20194;-55
2023/04/10 11:25:11;;;;;;;1.60;1.35;;;19.60;53.30;;;;;;5091464;28;20617;-51
2023/04/10 11:27:51;;;;;;;1.30;1.20;;;19.60;53.30;;;;;;5029523;28;20250;-54
2023/04/10 11:30:36;;;;;;;2.47;1.23;;;19.60;53.30;;;;;;5084617;28;20636;-54
2023/04/10 11:33:08;;;;;;;1.75;1.38;;;19.60;53.30;;;;;;5090881;28;20214;-55
2023/04/10 11:35:39;;;;;;;1.25;1.15;;;19.60;53.40;;;;;;5091743;28;20267;-54
2023/04/10 11:38:19;;;;;;;1.92;1.40;;;19.60;53.40;;;;;;5089482;28;20232;-53
2023/04/10 11:41:03;;;;;;;1.58;1.48;;;19.50;53.30;;;;;;5091287;28;20202;-53
2023/04/10 11:43:34;;;;;;;1.67;1.40;;;19.50;53.30;;;;;;5091355;28;20241;-54
2023/04/10 11:46:07;;;;;;;2.55;1.45;;;19.50;53.30;;;;;;5081688;28;20245;-53
2023/04/10 11:48:38;;;;;;;1.20;1.10;;;19.50;53.30;;;;;;5070975;28;20231;-52
2023/04/10 11:51:13;;;;;;;1.85;1.35;;;19.50;53.30;;;;;;5070682;28;20720;-53
2023/04/10 11:53:44;;;;;;;2.17;1.30;;;19.50;53.30;;;;;;5072127;28;20221;-55
2023/04/10 11:56:23;;;;;;;1.85;1.40;;;19.50;53.40;;;;;;5071144;28;20219;-53
2023/04/10 11:58:54;;;;;;;1.35;1.25;;;19.50;53.40;;;;;;5070969;28;20190;-49
2023/04/10 12:01:25;;;;;;;1.52;1.30;;;19.40;53.30;;;;;;5070571;28;20984;-50
2023/04/10 12:03:55;;;;;;;1.73;1.52;;;19.40;53.30;;;;;;5070737;28;20225;-55
2023/04/10 12:06:26;;;;;;;1.33;1.23;;;19.40;53.40;;;;;;5071796;28;20198;-54
2023/04/10 12:08:57;;;;;;;1.55;1.20;;;19.40;53.40;;;;;;5071002;28;20203;-53
2023/04/10 12:11:29;;;;;;;1.30;1.20;;;19.40;53.40;;;;;;5089890;28;20190;-52
2023/04/10 12:14:00;;;;;;;1.40;1.30;;;19.40;53.40;;;;;;5090924;28;20632;-56
2023/04/10 12:16:31;;;;;;;1.30;1.20;;;19.40;53.40;;;;;;5090953;28;20234;-54
2023/04/10 12:19:02;;;;;;;1.65;1.38;;;19.40;53.40;;;;;;5091056;28;20190;-51
2023/04/10 12:21:32;;;;;;;1.23;1.10;;;19.40;53.30;;;;;;5075799;28;20952;-55
2023/04/10 12:24:03;;;;;;;1.13;1.02;;;19.40;53.40;;;;;;5090790;28;20186;-56
2023/04/10 12:26:36;;;;;;;1.23;1.10;;;19.40;53.30;;;;;;5091308;28;20213;-53
2023/04/10 12:29:08;;;;;;;3.00;1.27;;;19.40;53.40;;;;;;5090992;28;20658;-51
2023/04/10 12:31:39;;;;;;;1.20;1.10;;;19.30;53.30;;;;;;5091520;28;20230;-51
2023/04/10 12:34:10;;;;;;;1.52;1.42;;;19.30;53.30;;;;;;5091126;28;20707;-51
2023/04/10 12:36:40;;;;;;;1.30;1.10;;;19.30;53.30;;;;;;5090574;28;20226;-51
2023/04/10 12:39:25;;;;;;;1.83;1.23;;;19.30;53.30;;;;;;5090623;28;20609;-50
2023/04/10 12:42:14;;;;;;;1.45;1.17;;;19.30;53.30;;;;;;5090735;28;20200;-51
2023/04/10 12:44:55;;;;;;;1.60;1.35;;;19.30;53.40;;;;;;5091167;28;20471;-53
2023/04/10 12:47:26;;;;;;;1.30;1.10;;;19.20;53.30;;;;;;5074447;28;20199;-51
2023/04/10 12:50:11;;;;;;;1.48;1.10;;;19.20;53.30;;;;;;5074046;28;20205;-48
2023/04/10 12:52:42;;;;;;;1.67;1.35;;;19.20;53.30;;;;;;5074182;28;20309;-52
2023/04/10 12:55:15;;;;;;;1.80;1.42;;;19.20;53.30;;;;;;5093406;28;20190;-51
2023/04/10 12:57:50;;;;;;;1.60;1.50;;;19.20;53.30;;;;;;5094539;28;20198;-51
2023/04/10 13:00:22;;;;;;;2.30;1.10;;;19.20;53.30;;;;;;5094476;28;20270;-51
2023/04/10 13:02:53;;;;;;;1.00;0.90;;;19.20;53.30;;;;;;5094344;28;20218;-55
2023/04/10 13:05:24;;;;;;;1.60;1.30;;;19.20;53.30;;;;;;5094416;28;20197;-52
2023/04/10 13:07:54;;;;;;;1.50;1.20;;;19.20;53.30;;;;;;5094078;28;20220;-54
2023/04/10 13:10:25;;;;;;;1.85;1.27;;;19.20;53.40;;;;;;5094364;28;20267;-53
2023/04/10 13:12:57;;;;;;;1.48;1.13;;;19.20;53.30;;;;;;5094244;28;20254;-52
2023/04/10 13:15:28;;;;;;;1.38;1.27;;;19.10;53.30;;;;;;5089383;28;20206;-53